الصفحة الرئيسية
METAR-TAF:

METAR-TAF

مطار :

Alice Springs, أستراليا

دائرة عرض: 23-48S, خط طول: 133-53E, ارتفاع: 545 متر

مراقبة الطقس الحالي

تاريخ ووقت الإصدار 10 دقيقة قبل الساعة 09:00UTC
ريح 7 عقدة من الشرق/الجنوب الشرقي
درجة الحرارة 21°درجة مئوية
الرطوبة 38%
ضغط 1019 hPa
الرؤية 10 كم أو أكثر

METAR: YBAS 250900Z AUTO 12007KT 9999 // NCD 21/06 Q1019 RF00.0/000.0

زمن: 18:40 (09:10 UTC)

توقعات

تاريخ ووقت الإصدار 4ساعات و 2 دقيقة قبل الساعة 05:08UTC
التوقعات صالحة من25 الساعة 06 UTC إلى 26 الساعة 06 UTC
ريح 8 عقدة من الجنوب الشرقي
الرؤية 10 كم أو أكثر
الغيوم لا تقل 1500 م ولا وجود لمزنة ركامية السحاب الأسود
من 25 الساعة 1200 UTC
ريح 5 عقدة من الشرق
الرؤية 10 كم أو أكثر
الغيوم لا تقل 1500 م ولا وجود لمزنة ركامية السحاب الأسود
أصبح
من 26 الساعة 00 UTC إلى 26 الساعة 01 UTC
ريح 10 عقدة من الشرق/الجنوب الشرقي
الرؤية 10 كم أو أكثر
الغيوم لا تقل 1500 م ولا وجود لمزنة ركامية السحاب الأسود

TAF: YBAS 250508Z 2506/2606 14008KT CAVOK FM251200 09005KT CAVOK BECMG 2600/2601 12010KT CAVOK

أرصاد الطقس والتوقعات من أكثر من 4000 مطار (تقارير الطقس للمطار METAR والتنبؤ بالطقس بالمطارTAF).

المحطات المتاحة هي النقط الصفراء والحمراء على الخريطة.

حرك المؤشر فوق النقطة لمعرفة اسم المحطة.

ثم انقر لمعرفة أرصاد وتوقعات الطقس.

لتغيير الخارطة: اضغط على الأزرار الخضراء مع رمز الصليب الأسود للتكبير. على الزر الأخضر مع شرطة للتصغير، أو على الأسهم الخضراء للخرائط المجاورة.


METAR-TAF: